createdAt,value
2018-08-29T00:01:52.034Z,8.80
2018-08-29T00:04:19.207Z,9.63
2018-08-29T00:06:46.354Z,10.37
2018-08-29T00:09:19.079Z,8.20
2018-08-29T00:11:46.231Z,9.10
2018-08-29T00:14:13.367Z,8.17
2018-08-29T00:16:40.526Z,8.87
2018-08-29T00:19:07.691Z,6.80
2018-08-29T00:21:34.865Z,12.07
2018-08-29T00:24:02.000Z,14.77
2018-08-29T00:26:29.183Z,9.37
2018-08-29T00:28:56.343Z,10.20
2018-08-29T00:31:23.811Z,9.97
2018-08-29T00:33:50.960Z,10.43
2018-08-29T00:36:18.130Z,10.30
2018-08-29T00:38:45.270Z,8.90
2018-08-29T00:41:12.618Z,11.90
2018-08-29T00:43:39.778Z,14.57
2018-08-29T00:46:06.963Z,15.93
2018-08-29T00:48:34.139Z,14.70
2018-08-29T00:51:01.297Z,11.40
2018-08-29T00:53:28.436Z,8.90
2018-08-29T00:55:55.599Z,12.40
2018-08-29T00:58:22.743Z,9.60
2018-08-29T01:00:49.908Z,9.60
2018-08-29T01:03:17.050Z,10.70
2018-08-29T01:05:44.238Z,9.20
2018-08-29T01:08:11.395Z,11.43
2018-08-29T01:10:38.560Z,8.83
2018-08-29T01:13:05.745Z,8.70
2018-08-29T01:15:33.349Z,11.77
2018-08-29T01:18:00.507Z,9.03
2018-08-29T01:20:27.686Z,12.63
2018-08-29T01:22:54.823Z,7.30
2018-08-29T01:25:21.982Z,8.77
2018-08-29T01:27:49.131Z,12.87
2018-08-29T01:30:16.298Z,9.80
2018-08-29T01:32:43.457Z,9.77
2018-08-29T01:35:10.636Z,14.50
2018-08-29T01:37:37.803Z,11.50
2018-08-29T01:40:05.439Z,11.70
2018-08-29T01:42:32.613Z,13.30
2018-08-29T01:44:59.783Z,9.80
2018-08-29T01:47:26.963Z,13.47
2018-08-29T01:49:54.138Z,8.73
2018-08-29T01:52:21.305Z,10.40
2018-08-29T01:54:48.442Z,8.90
2018-08-29T01:57:15.611Z,12.23
2018-08-29T01:59:42.756Z,11.50
2018-08-29T02:02:09.927Z,14.30
2018-08-29T02:04:37.097Z,10.03
2018-08-29T02:07:04.374Z,13.20
2018-08-29T02:09:31.542Z,10.30
2018-08-29T02:11:58.712Z,12.40
2018-08-29T02:14:25.895Z,14.87
2018-08-29T02:16:53.073Z,8.87
2018-08-29T02:19:20.262Z,17.20
2018-08-29T02:21:47.432Z,19.53
2018-08-29T02:24:14.594Z,8.77
2018-08-29T02:26:41.787Z,11.13
2018-08-29T02:29:08.935Z,8.10
2018-08-29T02:31:36.151Z,11.33
2018-08-29T02:34:03.327Z,12.10
2018-08-29T02:36:30.494Z,11.73
2018-08-29T02:38:57.662Z,9.30
2018-08-29T02:41:24.834Z,10.40
2018-08-29T02:43:52.000Z,10.47
2018-08-29T02:46:19.179Z,13.37
2018-08-29T02:48:46.347Z,9.20
2018-08-29T02:51:13.506Z,9.07
2018-08-29T02:53:40.659Z,11.37
2018-08-29T02:56:07.842Z,16.20
2018-08-29T02:58:35.036Z,15.67
2018-08-29T03:01:02.196Z,9.20
2018-08-29T03:03:29.377Z,16.30
2018-08-29T03:05:56.536Z,8.87
2018-08-29T03:08:23.711Z,17.30
2018-08-29T03:10:50.873Z,8.77
2018-08-29T03:13:22.362Z,9.10
2018-08-29T03:15:49.517Z,11.10
2018-08-29T03:18:16.699Z,10.00
2018-08-29T03:20:43.879Z,10.23
2018-08-29T03:23:11.054Z,10.97
2018-08-29T03:25:38.206Z,9.30
2018-08-29T03:28:05.402Z,12.03
2018-08-29T03:30:32.562Z,10.53
2018-08-29T03:32:59.744Z,10.70
2018-08-29T03:35:26.903Z,7.57
2018-08-29T03:37:54.089Z,13.20
2018-08-29T03:40:21.243Z,9.70
2018-08-29T03:42:48.424Z,13.37
2018-08-29T03:45:15.582Z,13.80
2018-08-29T03:47:42.769Z,7.60
2018-08-29T03:50:09.936Z,9.30
2018-08-29T03:52:37.110Z,10.40
2018-08-29T03:55:04.306Z,9.73
2018-08-29T03:57:31.491Z,11.60
2018-08-29T03:59:58.652Z,11.20
2018-08-29T04:02:25.823Z,12.10
2018-08-29T04:04:53.033Z,10.80
2018-08-29T04:07:20.177Z,11.80
2018-08-29T04:09:47.339Z,13.30
2018-08-29T04:12:14.519Z,15.90
2018-08-29T04:14:41.863Z,12.40
2018-08-29T04:17:09.043Z,10.90
2018-08-29T04:19:37.701Z,14.20
2018-08-29T04:22:09.063Z,10.43
2018-08-29T04:24:36.468Z,12.20
2018-08-29T04:27:03.683Z,14.93
2018-08-29T04:29:30.841Z,10.10
2018-08-29T04:31:58.014Z,10.27
2018-08-29T04:34:25.190Z,11.20
2018-08-29T04:36:52.347Z,14.10
2018-08-29T04:39:19.528Z,10.40
2018-08-29T04:41:46.687Z,10.20
2018-08-29T04:44:13.949Z,11.07
2018-08-29T04:46:41.107Z,10.17
2018-08-29T04:49:08.287Z,12.37
2018-08-29T04:51:35.441Z,14.40
2018-08-29T04:54:02.794Z,10.93
2018-08-29T04:56:30.112Z,9.60
2018-08-29T04:58:57.332Z,9.60
2018-08-29T05:01:24.488Z,12.13
2018-08-29T05:03:51.666Z,10.00
2018-08-29T05:06:18.822Z,11.00
2018-08-29T05:08:45.996Z,14.53
2018-08-29T05:11:13.210Z,13.43
2018-08-29T05:13:40.391Z,10.77
2018-08-29T05:16:07.542Z,9.77
2018-08-29T05:18:34.891Z,9.47
2018-08-29T05:21:02.008Z,9.37
2018-08-29T05:23:29.193Z,12.37
2018-08-29T05:25:56.354Z,15.23
2018-08-29T05:28:23.543Z,11.83
2018-08-29T05:30:50.709Z,14.00
2018-08-29T05:33:17.884Z,13.10
2018-08-29T05:35:45.045Z,12.10
2018-08-29T05:38:12.231Z,10.83
2018-08-29T05:40:39.394Z,11.73
2018-08-29T05:43:06.582Z,14.27
2018-08-29T05:45:33.763Z,12.87
2018-08-29T05:48:01.088Z,11.40
2018-08-29T05:50:28.160Z,8.87
2018-08-29T05:52:55.436Z,10.57
2018-08-29T05:55:22.641Z,14.73
2018-08-29T05:57:49.790Z,13.10
2018-08-29T06:00:16.962Z,11.00
2018-08-29T06:02:44.122Z,11.23
2018-08-29T06:05:11.308Z,11.13
2018-08-29T06:07:38.469Z,8.93
2018-08-29T06:10:06.135Z,14.00
2018-08-29T06:12:33.297Z,11.47
2018-08-29T06:15:00.463Z,9.60
2018-08-29T06:17:27.623Z,11.80
2018-08-29T06:19:54.836Z,12.27
2018-08-29T06:22:22.032Z,9.90
2018-08-29T06:24:49.311Z,18.67
2018-08-29T06:27:16.646Z,15.50
2018-08-29T06:29:43.857Z,11.23
2018-08-29T06:32:11.025Z,16.00
2018-08-29T06:34:38.201Z,11.40
2018-08-29T06:37:05.543Z,15.03
2018-08-29T06:39:32.740Z,11.20
2018-08-29T06:41:59.870Z,11.80
2018-08-29T06:44:27.046Z,11.43
2018-08-29T06:46:54.347Z,15.53
2018-08-29T06:49:21.523Z,12.60
2018-08-29T06:51:48.816Z,11.33
2018-08-29T06:54:15.953Z,10.73
2018-08-29T06:56:43.102Z,12.70
2018-08-29T06:59:25.014Z,11.70
2018-08-29T07:01:52.190Z,9.47
2018-08-29T07:04:20.340Z,9.80
2018-08-29T07:06:47.481Z,11.83
2018-08-29T07:09:14.935Z,11.13
2018-08-29T07:11:42.111Z,17.53
2018-08-29T07:14:10.042Z,13.10
2018-08-29T07:16:37.263Z,12.83
2018-08-29T07:19:04.467Z,12.67
2018-08-29T07:21:32.091Z,11.37
2018-08-29T07:23:59.539Z,8.20
2018-08-29T07:26:26.939Z,12.33
2018-08-29T07:28:54.170Z,10.53
2018-08-29T07:31:21.322Z,14.53
2018-08-29T07:33:48.806Z,11.97
2018-08-29T07:36:15.997Z,13.77
2018-08-29T07:38:46.816Z,12.20
2018-08-29T07:41:14.068Z,13.93
2018-08-29T07:43:41.235Z,9.10
2018-08-29T07:46:08.419Z,14.80
2018-08-29T07:48:35.575Z,12.07
2018-08-29T07:51:02.908Z,12.47
2018-08-29T07:53:30.063Z,10.00
2018-08-29T07:55:57.403Z,11.60
2018-08-29T07:58:24.562Z,14.47
2018-08-29T08:00:51.775Z,10.23
2018-08-29T08:03:19.319Z,14.90
2018-08-29T08:05:46.292Z,11.10
2018-08-29T08:08:13.679Z,10.60
2018-08-29T08:10:40.691Z,14.00
2018-08-29T08:13:07.854Z,17.63
2018-08-29T08:15:35.039Z,11.83
2018-08-29T08:18:02.210Z,15.87
2018-08-29T08:20:29.477Z,13.67
2018-08-29T08:22:56.650Z,12.47
2018-08-29T08:25:23.856Z,13.63
2018-08-29T08:27:51.102Z,12.80
2018-08-29T08:30:18.306Z,15.37
2018-08-29T08:32:45.530Z,13.67
2018-08-29T08:35:12.703Z,15.67
2018-08-29T08:37:39.867Z,12.70
2018-08-29T08:40:07.290Z,12.07
2018-08-29T08:42:34.466Z,16.50
2018-08-29T08:45:01.660Z,12.90
2018-08-29T08:47:28.854Z,14.37
2018-08-29T08:49:56.370Z,12.80
2018-08-29T08:52:23.246Z,13.00
2018-08-29T08:54:50.456Z,14.43
2018-08-29T08:57:17.688Z,14.80
2018-08-29T08:59:45.057Z,16.20
2018-08-29T09:02:12.087Z,14.47
2018-08-29T09:04:39.278Z,15.97
2018-08-29T09:07:06.490Z,13.77
2018-08-29T09:09:33.696Z,19.43
2018-08-29T09:12:00.891Z,14.07
2018-08-29T09:14:28.065Z,14.73
2018-08-29T09:16:55.262Z,13.73
2018-08-29T09:19:22.628Z,13.33
2018-08-29T09:21:49.862Z,16.83
2018-08-29T09:24:17.195Z,15.63
2018-08-29T09:26:44.300Z,15.40
2018-08-29T09:29:11.508Z,16.47
2018-08-29T09:31:38.718Z,13.30
2018-08-29T09:34:05.916Z,13.93
2018-08-29T09:36:33.340Z,11.20
2018-08-29T09:39:00.536Z,12.40
2018-08-29T09:41:27.710Z,16.93
2018-08-29T09:43:55.081Z,10.90
2018-08-29T09:46:22.250Z,13.37
2018-08-29T09:48:49.410Z,12.33
2018-08-29T09:51:16.660Z,16.00
2018-08-29T09:53:43.820Z,37.60
2018-08-29T09:56:11.011Z,16.53
2018-08-29T09:58:38.247Z,15.40
2018-08-29T10:01:10.915Z,14.47
2018-08-29T10:03:38.173Z,19.13
2018-08-29T10:06:05.345Z,15.10
2018-08-29T10:08:32.508Z,14.37
2018-08-29T10:10:59.719Z,13.90
2018-08-29T10:13:27.095Z,18.70
2018-08-29T10:15:54.286Z,15.47
2018-08-29T10:18:21.452Z,14.10
2018-08-29T10:20:48.698Z,16.00
2018-08-29T10:23:15.937Z,14.70
2018-08-29T10:25:43.139Z,14.30
2018-08-29T10:28:11.987Z,16.73
2018-08-29T10:30:39.143Z,13.93
2018-08-29T10:33:06.343Z,23.67
2018-08-29T10:35:33.706Z,20.47
2018-08-29T10:38:00.972Z,14.63
2018-08-29T10:40:28.225Z,13.20
2018-08-29T10:42:55.429Z,15.73
2018-08-29T10:45:22.600Z,14.33
2018-08-29T10:47:49.866Z,17.50
2018-08-29T10:50:17.077Z,17.07
2018-08-29T10:52:44.303Z,18.10
2018-08-29T10:55:11.497Z,21.23
2018-08-29T10:57:38.658Z,12.00
2018-08-29T11:00:05.882Z,15.27
2018-08-29T11:02:33.090Z,17.70
2018-08-29T11:05:00.290Z,14.73
2018-08-29T11:07:27.474Z,17.53
2018-08-29T11:09:54.634Z,18.07
2018-08-29T11:12:21.842Z,14.07
2018-08-29T11:14:49.003Z,13.50
2018-08-29T11:17:16.166Z,13.47
2018-08-29T11:19:43.356Z,17.87
2018-08-29T11:22:10.670Z,16.27
2018-08-29T11:24:37.798Z,15.07
2018-08-29T11:27:05.240Z,16.00
2018-08-29T11:29:32.402Z,13.77
2018-08-29T11:31:59.606Z,20.13
2018-08-29T11:34:26.770Z,17.30
2018-08-29T11:36:53.934Z,18.83
2018-08-29T11:39:21.135Z,16.97
2018-08-29T11:41:48.320Z,18.30
2018-08-29T11:44:15.490Z,15.73
2018-08-29T11:46:42.670Z,16.53
2018-08-29T11:49:09.837Z,18.47
2018-08-29T11:51:37.023Z,17.87
2018-08-29T11:54:04.954Z,14.43
2018-08-29T11:56:32.163Z,18.00
2018-08-29T11:58:59.402Z,17.30
2018-08-29T12:01:26.591Z,18.30
2018-08-29T12:03:53.758Z,19.97
2018-08-29T12:06:20.963Z,19.53
2018-08-29T12:08:48.166Z,17.60
2018-08-29T12:11:15.380Z,19.20
2018-08-29T12:13:42.574Z,18.27
2018-08-29T12:16:09.803Z,18.17
2018-08-29T12:18:37.999Z,21.10
2018-08-29T12:21:05.308Z,19.03
2018-08-29T12:23:33.042Z,21.37
2018-08-29T12:26:00.424Z,16.13
2018-08-29T12:28:27.638Z,19.73
2018-08-29T12:30:54.830Z,20.93
2018-08-29T12:33:21.993Z,21.70
2018-08-29T12:35:49.182Z,21.17
2018-08-29T12:38:16.378Z,21.37
2018-08-29T12:40:43.543Z,18.23
2018-08-29T12:43:10.915Z,19.53
2018-08-29T12:45:38.098Z,17.17
2018-08-29T12:48:05.287Z,20.67
2018-08-29T12:50:32.769Z,16.77
2018-08-29T12:52:59.750Z,16.53
2018-08-29T12:55:26.943Z,21.97
2018-08-29T12:57:54.175Z,18.10
2018-08-29T13:00:21.376Z,16.83
2018-08-29T13:02:48.684Z,16.60
2018-08-29T13:05:15.847Z,15.43
2018-08-29T13:07:43.023Z,18.70
2018-08-29T13:10:10.214Z,17.13
2018-08-29T13:12:37.499Z,14.97
2018-08-29T13:15:04.696Z,17.50
2018-08-29T13:17:31.859Z,17.90
2018-08-29T13:19:59.043Z,20.67
2018-08-29T13:22:26.203Z,19.23
2018-08-29T13:24:53.398Z,17.07
2018-08-29T13:27:20.611Z,20.30
2018-08-29T13:29:47.775Z,19.03
2018-08-29T13:32:14.965Z,17.33
2018-08-29T13:34:42.150Z,18.73
2018-08-29T13:37:09.345Z,18.70
2018-08-29T13:39:36.503Z,19.30
2018-08-29T13:42:03.705Z,15.90
2018-08-29T13:44:30.865Z,15.60
2018-08-29T13:46:58.046Z,18.77
2018-08-29T13:49:25.342Z,15.67
2018-08-29T13:51:52.502Z,17.17
2018-08-29T13:54:19.669Z,15.87
2018-08-29T13:56:46.854Z,21.00
2018-08-29T13:59:14.030Z,18.20
2018-08-29T14:01:41.218Z,26.70
2018-08-29T14:04:08.403Z,15.27
2018-08-29T14:06:35.589Z,18.43
2018-08-29T14:09:02.817Z,17.03
2018-08-29T14:11:29.950Z,15.50
2018-08-29T14:13:57.170Z,18.53
2018-08-29T14:16:24.480Z,16.83
2018-08-29T14:18:51.672Z,17.23
2018-08-29T14:21:18.859Z,16.87
2018-08-29T14:23:46.054Z,17.43
2018-08-29T14:26:13.279Z,13.97
2018-08-29T14:28:40.481Z,16.73
2018-08-29T14:31:07.649Z,18.67
2018-08-29T14:33:34.898Z,15.40
2018-08-29T14:36:02.097Z,15.50
2018-08-29T14:38:29.296Z,14.83
2018-08-29T14:40:56.818Z,16.37
2018-08-29T14:43:24.036Z,21.27
2018-08-29T14:45:51.302Z,18.50
2018-08-29T14:48:18.476Z,18.30
2018-08-29T14:50:45.674Z,19.07
2018-08-29T14:53:13.155Z,17.37
2018-08-29T14:55:40.412Z,21.07
2018-08-29T14:58:07.651Z,16.10
2018-08-29T15:00:52.431Z,16.70
2018-08-29T15:04:28.958Z,22.60
2018-08-29T15:06:56.313Z,17.80
2018-08-29T15:09:24.139Z,20.90
2018-08-29T15:11:51.358Z,16.57
2018-08-29T15:14:19.061Z,15.73
2018-08-29T15:16:47.074Z,14.93
2018-08-29T15:19:14.240Z,12.50
2018-08-29T15:21:41.646Z,11.53
2018-08-29T15:24:08.831Z,12.30
2018-08-29T15:26:36.093Z,15.80
2018-08-29T15:29:03.258Z,14.20
2018-08-29T15:31:30.446Z,12.93
2018-08-29T15:33:58.140Z,15.40
2018-08-29T15:36:25.470Z,15.33
2018-08-29T15:38:53.731Z,12.33
2018-08-29T15:41:20.851Z,14.97
2018-08-29T15:43:48.006Z,12.57
2018-08-29T15:46:15.207Z,12.67
2018-08-29T15:48:42.419Z,14.03
2018-08-29T15:51:09.626Z,14.80
2018-08-29T15:53:36.798Z,14.27
2018-08-29T15:56:03.971Z,13.73
2018-08-29T15:58:31.154Z,17.27
2018-08-29T16:00:58.536Z,12.17
2018-08-29T16:03:25.714Z,13.70
2018-08-29T16:05:52.879Z,12.17
2018-08-29T16:08:20.066Z,15.00
2018-08-29T16:10:47.218Z,12.60
2018-08-29T16:13:14.420Z,15.43
2018-08-29T16:15:41.774Z,13.13
2018-08-29T16:18:09.282Z,12.40
2018-08-29T16:20:36.478Z,17.77
2018-08-29T16:23:03.634Z,12.70
2018-08-29T16:25:30.819Z,13.80
2018-08-29T16:27:57.973Z,14.60
2018-08-29T16:30:25.174Z,11.90
2018-08-29T16:32:52.327Z,10.87
2018-08-29T16:35:19.506Z,12.27
2018-08-29T16:37:47.322Z,13.53
2018-08-29T16:40:14.515Z,12.50
2018-08-29T16:42:41.695Z,12.97
2018-08-29T16:45:09.971Z,14.20
2018-08-29T16:47:37.494Z,11.30
2018-08-29T16:50:05.708Z,11.37
2018-08-29T16:52:39.690Z,14.00
2018-08-29T16:55:07.688Z,13.60
2018-08-29T16:57:34.908Z,14.67
2018-08-29T17:00:02.763Z,12.80
2018-08-29T17:02:30.023Z,12.77
2018-08-29T17:05:04.168Z,12.43
2018-08-29T17:07:44.280Z,11.60
2018-08-29T17:10:12.200Z,13.10
2018-08-29T17:12:39.360Z,14.50
2018-08-29T17:17:54.582Z,12.73
2018-08-29T17:20:21.795Z,15.10
2018-08-29T17:22:50.031Z,18.47
2018-08-29T17:25:17.242Z,13.00
2018-08-29T17:27:44.423Z,18.10
2018-08-29T17:30:11.607Z,20.77
2018-08-29T17:32:38.801Z,13.37
2018-08-29T17:35:06.147Z,14.00
2018-08-29T17:37:33.354Z,13.30
2018-08-29T17:40:00.546Z,12.40
2018-08-29T17:42:27.717Z,13.27
2018-08-29T17:44:54.903Z,11.90
2018-08-29T17:47:22.229Z,11.90
2018-08-29T17:49:49.322Z,16.53
2018-08-29T17:52:16.478Z,14.47
2018-08-29T17:54:43.662Z,16.00
2018-08-29T17:57:10.860Z,16.80
2018-08-29T17:59:38.027Z,13.97
2018-08-29T18:02:05.227Z,16.13
2018-08-29T18:04:32.558Z,14.10
2018-08-29T18:07:03.249Z,16.60
2018-08-29T18:09:30.457Z,17.13
2018-08-29T18:11:57.679Z,15.40
2018-08-29T18:14:24.875Z,13.73
2018-08-29T18:16:52.099Z,15.10
2018-08-29T18:19:19.286Z,16.20
2018-08-29T18:21:46.460Z,13.67
2018-08-29T18:24:14.158Z,16.23
2018-08-29T18:26:41.278Z,13.70
2018-08-29T18:29:09.092Z,13.37
2018-08-29T18:31:36.307Z,13.57
2018-08-29T18:34:03.502Z,15.73
2018-08-29T18:36:30.698Z,16.07
2018-08-29T18:38:57.910Z,15.80
2018-08-29T18:41:25.102Z,15.77
2018-08-29T18:43:52.282Z,17.10
2018-08-29T18:46:19.495Z,15.57
2018-08-29T18:48:46.689Z,17.57
2018-08-29T18:51:13.855Z,19.23
2018-08-29T18:53:41.034Z,18.10
2018-08-29T18:56:08.427Z,18.10
2018-08-29T18:58:35.607Z,16.63
2018-08-29T19:01:02.798Z,17.07
2018-08-29T19:04:01.519Z,17.30
2018-08-29T19:06:28.715Z,17.23
2018-08-29T19:08:55.969Z,19.23
2018-08-29T19:11:23.186Z,18.80
2018-08-29T19:13:50.378Z,19.40
2018-08-29T19:16:17.551Z,21.87
2018-08-29T19:18:44.902Z,21.40
2018-08-29T19:21:12.087Z,19.93
2018-08-29T19:23:39.387Z,19.33
2018-08-29T19:26:06.764Z,26.87
2018-08-29T19:28:33.986Z,19.27
2018-08-29T19:31:01.168Z,19.63
2018-08-29T19:33:28.348Z,23.70
2018-08-29T19:35:55.932Z,23.40
2018-08-29T19:38:23.107Z,23.73
2018-08-29T19:40:50.319Z,21.03
2018-08-29T19:43:17.494Z,23.13
2018-08-29T19:45:44.667Z,23.30
2018-08-29T19:48:11.879Z,26.70
2018-08-29T19:50:39.074Z,26.67
2018-08-29T19:53:06.264Z,26.50
2018-08-29T19:55:33.436Z,25.23
2018-08-29T19:58:00.700Z,21.77
2018-08-29T20:00:27.838Z,22.73
2018-08-29T20:02:54.990Z,21.27
2018-08-29T20:05:22.182Z,27.60
2018-08-29T20:07:49.360Z,22.77
2018-08-29T20:10:16.554Z,21.90
2018-08-29T20:12:43.720Z,23.70
2018-08-29T20:15:11.057Z,24.70
2018-08-29T20:17:38.115Z,22.13
2018-08-29T20:20:05.431Z,22.17
2018-08-29T20:22:32.626Z,19.03
2018-08-29T20:24:59.790Z,24.80
2018-08-29T20:27:26.999Z,23.30
2018-08-29T20:29:54.184Z,19.80
2018-08-29T20:32:21.426Z,19.37
2018-08-29T20:34:48.583Z,21.03
2018-08-29T20:37:15.795Z,21.07
2018-08-29T20:39:42.974Z,19.70
2018-08-29T20:42:10.202Z,20.37
2018-08-29T20:44:37.342Z,19.50
2018-08-29T20:47:04.543Z,21.67
2018-08-29T20:49:31.738Z,23.73
2018-08-29T20:51:58.911Z,23.50
2018-08-29T20:54:26.116Z,17.97
2018-08-29T20:56:53.307Z,15.37
2018-08-29T20:59:20.502Z,17.60
2018-08-29T21:01:47.691Z,17.03
2018-08-29T21:04:14.874Z,17.10
2018-08-29T21:06:42.053Z,19.37
2018-08-29T21:09:09.255Z,17.97
2018-08-29T21:11:36.447Z,15.43
2018-08-29T21:14:03.633Z,18.80
2018-08-29T21:16:30.827Z,17.83
2018-08-29T21:18:58.010Z,22.83
2018-08-29T21:21:25.279Z,18.87
2018-08-29T21:23:52.385Z,23.10
2018-08-29T21:26:20.436Z,21.63
2018-08-29T21:28:54.723Z,24.83
2018-08-29T21:31:27.503Z,24.90
2018-08-29T21:36:04.134Z,21.57
2018-08-29T21:38:31.299Z,21.80
2018-08-29T21:40:58.706Z,23.07
2018-08-29T21:44:37.606Z,20.43
2018-08-29T21:47:10.672Z,21.30
2018-08-29T21:51:49.534Z,18.10
2018-08-29T21:56:26.313Z,18.43
2018-08-29T22:01:05.115Z,18.37
2018-08-29T22:03:46.933Z,18.27
2018-08-29T22:06:14.175Z,16.83
2018-08-29T22:08:41.370Z,19.57
2018-08-29T22:11:08.574Z,13.60
2018-08-29T22:13:36.265Z,13.50
2018-08-29T22:16:03.478Z,11.37
2018-08-29T22:18:30.671Z,11.00
2018-08-29T22:20:58.704Z,12.47
2018-08-29T22:23:25.889Z,9.83
2018-08-29T22:25:54.218Z,11.53
2018-08-29T22:28:21.389Z,11.20
2018-08-29T22:30:48.595Z,11.67
2018-08-29T22:33:16.805Z,13.33
2018-08-29T22:35:45.094Z,9.00
2018-08-29T22:38:12.256Z,10.93
2018-08-29T22:40:39.475Z,8.87
2018-08-29T22:43:06.720Z,9.33
2018-08-29T22:45:33.839Z,12.23
2018-08-29T22:48:01.031Z,10.70
2018-08-29T22:50:28.202Z,10.70
2018-08-29T22:52:55.389Z,11.00
2018-08-29T22:55:22.615Z,13.53
2018-08-29T22:57:49.784Z,11.03
2018-08-29T23:00:17.017Z,10.73
2018-08-29T23:02:44.175Z,14.00
2018-08-29T23:05:11.370Z,14.70
2018-08-29T23:07:38.534Z,12.33
2018-08-29T23:10:05.883Z,14.27
2018-08-29T23:12:33.037Z,11.43
2018-08-29T23:15:00.201Z,10.60
2018-08-29T23:17:27.385Z,17.23
2018-08-29T23:19:54.709Z,13.03
2018-08-29T23:22:21.883Z,16.07
2018-08-29T23:24:49.083Z,17.40
2018-08-29T23:27:16.247Z,15.03
2018-08-29T23:29:43.411Z,19.60
2018-08-29T23:32:10.627Z,18.50
2018-08-29T23:34:37.808Z,20.90
2018-08-29T23:37:05.038Z,29.37
2018-08-29T23:39:32.223Z,25.07
2018-08-29T23:41:59.454Z,28.70
2018-08-29T23:44:26.645Z,27.50
2018-08-29T23:46:53.847Z,31.13
2018-08-29T23:49:21.050Z,32.70
2018-08-29T23:51:48.231Z,35.93
2018-08-29T23:54:15.440Z,33.60
2018-08-29T23:56:42.611Z,35.43
2018-08-29T23:59:09.831Z,38.30
